createdAt,value
2022-12-18T00:00:12.682Z,25.38
2022-12-18T00:05:18.016Z,22.27
2022-12-18T00:10:20.602Z,25.98
2022-12-18T00:15:23.281Z,19.45
2022-12-18T00:20:30.991Z,22.40
2022-12-18T00:25:53.259Z,23.30
2022-12-18T00:31:06.703Z,24.47
2022-12-18T00:36:20.956Z,23.65
2022-12-18T00:41:42.929Z,30.63
2022-12-18T00:46:46.934Z,28.20
2022-12-18T00:51:50.373Z,25.75
2022-12-18T00:56:53.000Z,26.15
2022-12-18T01:01:57.005Z,24.87
2022-12-18T01:06:59.717Z,26.25
2022-12-18T01:12:03.700Z,23.20
2022-12-18T01:17:06.506Z,27.40
2022-12-18T01:22:10.126Z,19.85
2022-12-18T01:27:12.762Z,24.10
2022-12-18T01:32:16.050Z,21.73
2022-12-18T01:37:20.004Z,19.55
2022-12-18T01:42:22.658Z,22.07
2022-12-18T01:47:51.215Z,21.88
2022-12-18T01:53:00.581Z,20.75
2022-12-18T01:58:04.257Z,18.05
2022-12-18T02:03:06.881Z,16.35
2022-12-18T02:08:32.295Z,18.13
2022-12-18T02:13:44.135Z,18.20
2022-12-18T02:18:51.181Z,18.58
2022-12-18T02:24:05.454Z,18.20
2022-12-18T02:29:14.502Z,17.52
2022-12-18T02:34:18.893Z,19.70
2022-12-18T02:39:23.432Z,15.75
2022-12-18T02:44:33.926Z,15.25
2022-12-18T02:49:58.681Z,13.35
2022-12-18T02:55:25.410Z,14.48
2022-12-18T03:00:53.288Z,13.18
2022-12-18T03:06:11.473Z,13.18
2022-12-18T03:11:15.333Z,11.60
2022-12-18T03:21:51.563Z,8.68
2022-12-18T03:26:58.335Z,9.95
2022-12-18T03:32:11.471Z,11.77
2022-12-18T03:37:14.809Z,11.98
2022-12-18T03:42:47.668Z,11.30
2022-12-18T03:47:56.647Z,14.75
2022-12-18T03:53:24.485Z,13.68
2022-12-18T03:58:28.325Z,11.52
2022-12-18T04:03:42.331Z,10.47
2022-12-18T04:08:46.965Z,11.25
2022-12-18T04:13:58.795Z,12.45
2022-12-18T04:19:01.674Z,10.38
2022-12-18T04:24:08.952Z,11.80
2022-12-18T04:29:15.649Z,12.52
2022-12-18T04:34:18.741Z,9.85
2022-12-18T04:39:26.359Z,10.65
2022-12-18T04:44:32.866Z,10.93
2022-12-18T04:49:35.443Z,14.07
2022-12-18T04:54:38.054Z,13.75
2022-12-18T04:59:40.984Z,11.52
2022-12-18T05:04:43.666Z,13.38
2022-12-18T05:09:46.422Z,7.80
2022-12-18T05:14:49.175Z,13.98
2022-12-18T05:19:51.650Z,8.68
2022-12-18T05:24:54.220Z,8.85
2022-12-18T05:29:56.771Z,8.45
2022-12-18T05:34:59.395Z,10.32
2022-12-18T05:40:02.627Z,9.90
2022-12-18T05:45:06.249Z,14.63
2022-12-18T05:50:09.187Z,12.55
2022-12-18T05:55:11.816Z,9.32
2022-12-18T06:00:14.980Z,12.30
2022-12-18T06:05:17.638Z,12.48
2022-12-18T06:10:21.752Z,15.27
2022-12-18T06:15:24.844Z,12.98
2022-12-18T06:20:33.066Z,7.78
2022-12-18T06:25:39.407Z,10.93
2022-12-18T06:30:45.584Z,14.07
2022-12-18T06:35:48.206Z,9.43
2022-12-18T06:40:50.781Z,10.45
2022-12-18T06:46:02.106Z,11.93
2022-12-18T06:51:05.460Z,8.77
2022-12-18T06:56:10.675Z,11.85
2022-12-18T07:01:14.624Z,16.73
2022-12-18T07:06:19.622Z,17.30
2022-12-18T07:11:22.463Z,16.08
2022-12-18T07:16:25.985Z,18.35
2022-12-18T07:21:28.921Z,20.20
2022-12-18T07:26:31.627Z,18.95
2022-12-18T07:31:34.346Z,20.63
2022-12-18T07:36:36.933Z,21.13
2022-12-18T07:41:46.797Z,29.88
2022-12-18T07:46:52.121Z,17.08
2022-12-18T07:52:13.441Z,42.88
2022-12-18T07:57:41.803Z,37.85
2022-12-18T08:02:39.878Z,37.92
2022-12-18T08:07:42.656Z,43.47
2022-12-18T08:12:45.213Z,28.60
2022-12-18T08:17:47.803Z,33.50
2022-12-18T08:22:50.378Z,20.80
2022-12-18T08:27:53.392Z,26.92
2022-12-18T08:32:58.434Z,46.05
2022-12-18T08:38:01.170Z,35.38
2022-12-18T08:43:22.495Z,38.05
2022-12-18T08:48:25.606Z,41.97
2022-12-18T08:53:32.673Z,39.35
2022-12-18T08:58:38.221Z,40.03
2022-12-18T09:03:41.449Z,46.22
2022-12-18T09:08:47.833Z,40.50
2022-12-18T09:13:50.922Z,35.90
2022-12-18T09:19:00.163Z,43.35
2022-12-18T09:24:03.148Z,39.20
2022-12-18T09:29:08.405Z,39.80
2022-12-18T09:34:11.136Z,35.53
2022-12-18T09:39:13.920Z,38.72
2022-12-18T09:44:44.693Z,44.20
2022-12-18T09:49:56.377Z,39.17
2022-12-18T09:55:11.771Z,41.88
2022-12-18T10:00:21.521Z,19.55
2022-12-18T10:05:45.814Z,17.65
2022-12-18T10:10:53.370Z,34.70
2022-12-18T10:16:11.362Z,30.15
2022-12-18T10:21:20.502Z,29.58
2022-12-18T10:26:23.877Z,31.80
2022-12-18T10:31:27.383Z,24.30
2022-12-18T10:36:30.306Z,24.70
2022-12-18T10:41:34.053Z,29.83
2022-12-18T10:46:37.072Z,17.15
2022-12-18T10:51:39.868Z,13.63
2022-12-18T10:56:43.734Z,24.15
2022-12-18T11:01:56.952Z,26.52
2022-12-18T11:07:13.795Z,23.63
2022-12-18T11:12:20.862Z,23.05
2022-12-18T11:17:33.487Z,25.55
2022-12-18T11:22:37.976Z,21.42
2022-12-18T11:27:41.987Z,19.45
2022-12-18T11:32:52.012Z,13.43
2022-12-18T11:37:59.891Z,17.58
2022-12-18T11:43:18.213Z,16.70
2022-12-18T11:48:25.864Z,17.02
2022-12-18T11:53:31.513Z,18.55
2022-12-18T11:58:47.681Z,18.42
2022-12-18T12:04:33.928Z,16.80
2022-12-18T12:09:42.835Z,16.42
2022-12-18T12:15:00.695Z,16.15
2022-12-18T12:20:14.291Z,17.85
2022-12-18T12:25:34.509Z,16.17
2022-12-18T12:30:45.361Z,11.73
2022-12-18T12:36:07.315Z,16.83
2022-12-18T12:41:33.762Z,18.73
2022-12-18T12:46:40.470Z,13.80
2022-12-18T12:51:47.088Z,15.38
2022-12-18T12:56:57.187Z,14.38
2022-12-18T13:02:24.606Z,15.30
2022-12-18T13:07:34.637Z,15.30
2022-12-18T13:12:55.815Z,14.85
2022-12-18T13:18:30.193Z,11.15
2022-12-18T13:23:35.765Z,17.73
2022-12-18T13:28:47.461Z,16.33
2022-12-18T13:34:25.221Z,15.27
2022-12-18T13:39:26.562Z,14.83
2022-12-18T13:44:41.554Z,13.10
2022-12-18T13:49:45.427Z,13.00
2022-12-18T13:55:17.771Z,14.20
2022-12-18T14:00:29.162Z,9.32
2022-12-18T14:05:35.797Z,15.68
2022-12-18T14:10:48.907Z,13.68
2022-12-18T14:15:52.944Z,15.47
2022-12-18T14:20:59.134Z,15.18
2022-12-18T14:26:06.229Z,14.65
2022-12-18T14:31:22.101Z,12.80
2022-12-18T14:36:26.856Z,15.10
2022-12-18T14:41:29.915Z,14.43
2022-12-18T14:46:39.526Z,10.68
2022-12-18T14:51:49.001Z,15.45
2022-12-18T14:57:01.964Z,11.15
2022-12-18T15:02:25.723Z,13.52
2022-12-18T15:07:28.660Z,12.30
2022-12-18T15:12:35.342Z,13.57
2022-12-18T15:17:39.177Z,13.65
2022-12-18T15:22:42.814Z,17.48
2022-12-18T15:27:47.610Z,12.38
2022-12-18T15:32:50.697Z,15.48
2022-12-18T15:37:53.522Z,15.35
2022-12-18T15:43:15.290Z,14.63
2022-12-18T15:48:26.322Z,15.27
2022-12-18T15:53:34.430Z,16.77
2022-12-18T15:58:37.180Z,14.95
2022-12-18T16:03:40.217Z,19.17
2022-12-18T16:08:43.178Z,16.58
2022-12-18T16:13:46.508Z,16.35
2022-12-18T16:18:49.675Z,17.85
2022-12-18T16:23:52.328Z,16.48
2022-12-18T16:28:54.947Z,17.58
2022-12-18T16:34:18.601Z,18.70
2022-12-18T16:39:22.328Z,15.67
2022-12-18T16:49:29.875Z,17.02
2022-12-18T16:54:35.156Z,9.88
2022-12-18T16:59:37.803Z,14.15
2022-12-18T17:04:40.958Z,14.45
2022-12-18T17:09:43.576Z,16.30
2022-12-18T17:14:46.324Z,17.52
2022-12-18T17:19:49.673Z,19.35
2022-12-18T17:24:53.377Z,19.45
2022-12-18T17:29:55.912Z,21.73
2022-12-18T17:35:02.608Z,20.83
2022-12-18T17:40:10.221Z,20.60
2022-12-18T17:45:12.845Z,20.35
2022-12-18T17:50:15.529Z,20.92
2022-12-18T17:55:18.463Z,22.77
2022-12-18T18:00:40.016Z,16.88
2022-12-18T18:05:42.682Z,20.02
2022-12-18T18:10:49.647Z,19.30
2022-12-18T18:16:01.202Z,20.65
2022-12-18T18:21:07.996Z,20.88
2022-12-18T18:26:10.895Z,21.25
2022-12-18T18:31:14.230Z,19.23
2022-12-18T18:36:18.400Z,20.20
2022-12-18T18:41:24.680Z,22.87
2022-12-18T18:46:28.421Z,20.15
2022-12-18T18:51:35.057Z,22.02
2022-12-18T18:57:03.756Z,22.40
2022-12-18T19:02:04.248Z,20.23
2022-12-18T19:07:09.000Z,20.38
2022-12-18T19:12:30.111Z,23.57
2022-12-18T19:17:34.039Z,22.17
2022-12-18T19:22:37.838Z,17.38
2022-12-18T19:27:40.549Z,20.80
2022-12-18T19:32:45.515Z,20.35
2022-12-18T19:37:48.336Z,24.67
2022-12-18T19:42:51.139Z,21.35
2022-12-18T19:48:12.756Z,20.75
2022-12-18T19:53:15.331Z,21.83
2022-12-18T19:58:18.001Z,21.95
2022-12-18T20:03:30.415Z,19.20
2022-12-18T20:08:37.191Z,23.52
2022-12-18T20:13:40.805Z,22.10
2022-12-18T20:18:43.639Z,23.00
2022-12-18T20:23:46.963Z,20.95
2022-12-18T20:28:49.773Z,22.92
2022-12-18T20:33:54.399Z,24.17
2022-12-18T20:39:00.526Z,21.60
2022-12-18T20:44:09.851Z,23.45
2022-12-18T20:49:26.667Z,21.35
2022-12-18T20:54:29.272Z,26.15
2022-12-18T20:59:33.113Z,12.13
2022-12-18T21:04:35.865Z,24.05
2022-12-18T21:09:38.772Z,21.60
2022-12-18T21:14:41.501Z,29.52
2022-12-18T21:19:44.142Z,16.52
2022-12-18T21:29:52.379Z,19.25
2022-12-18T21:34:55.295Z,22.47
2022-12-18T21:39:57.909Z,22.13
2022-12-18T21:45:01.541Z,27.08
2022-12-18T21:50:05.591Z,21.83
2022-12-18T21:55:13.223Z,28.30
2022-12-18T22:00:19.334Z,17.15
2022-12-18T22:05:22.434Z,21.98
2022-12-18T22:10:25.126Z,28.30
2022-12-18T22:15:27.736Z,26.33
2022-12-18T22:20:30.492Z,14.98
2022-12-18T22:25:34.137Z,28.10
2022-12-18T22:30:41.224Z,29.35
2022-12-18T22:35:43.844Z,21.65
2022-12-18T22:40:46.818Z,30.10
2022-12-18T22:45:51.557Z,24.08
2022-12-18T22:50:59.724Z,23.65
2022-12-18T22:56:02.677Z,29.55
2022-12-18T23:01:06.434Z,23.50
2022-12-18T23:06:09.920Z,24.85
2022-12-18T23:11:13.415Z,23.02
2022-12-18T23:16:18.720Z,29.77
2022-12-18T23:21:22.726Z,22.42
2022-12-18T23:26:26.193Z,25.27
2022-12-18T23:31:33.902Z,23.88
2022-12-18T23:36:45.827Z,32.13
2022-12-18T23:41:51.939Z,13.73
2022-12-18T23:46:54.808Z,21.30
2022-12-18T23:51:57.583Z,29.85
2022-12-18T23:57:00.567Z,27.50
